EHEH/EIN METAR and TAF weather

Enter ICAO airport designator
Station Type Date Time Source
EHEH METAR 2021/05/15 22:35 UTC NOAA

EHEH 152235Z AUTO VRB02KT 9999 DZ FEW015CB BKN024 OVC028 10/09 Q1001 WHT


Station Type Date Time Source
EHEH Decoded METAR 2021/05/15 22:35 UTC NOAA

Eindhoven, Netherlands (EHEH) 51-27N 005-25E 28M
May 15, 2021 - 06:35 PM EDT / 2021.05.15 2235 UTC
Wind: Variable at 2 MPH (2 KT):0
Visibility: greater than 7 mile(s):0
Sky conditions: overcast
Weather: drizzle; Cumulonimbus clouds observed
Temperature: 50 F (10 C)
Dew Point: 48 F (9 C)
Relative Humidity: 93%
Pressure (altimeter): 29.56 in. Hg (1001 hPa)
ob: EHEH 152235Z AUTO VRB02KT 9999 DZ FEW015CB BKN024 OVC028 10/09 Q1001 WHT
cycle: 22

Station Type Date Time Source
EHEH TAF 2021/05/15 18:45 UTC NOAA

TAF TAF EHEH 151736Z 1518/1624 22009KT 9999 SCT022 BKN030
TEMPO 1602/1607 FEW012 SCT017 BKN025
BECMG 1605/1607 23011G22KT PROB30
TEMPO 1607/1610 FEW010 FEW020CB BKN030
TEMPO 1610/1616 24012G25KT 3500 SHRA SCT008 SCT018CB BKN025 PROB40
TEMPO 1610/1616 TSRAGR
BECMG 1616/1618 20006KT PROB30
TEMPO 1616/1624 FEW010 FEW020CB BKN030

Example: see airport list